In Rescue
 
Open Full Screen Window  High Contrast Mode
Wind Gusting 17 knots
07
May 20, 2019 2:05 PM CDT
Weather Information
Wind Direction
  080 °
Wind Speed
  07 kt (8 mph)
Wind Gust
  17 kt (20 mph)
Altimeter
30.15 in
Visibility
10 SM
Temperature
12° C
54° F
Dewpoint
04° C
39° F
Humidity
58%
1hr Rain Fall
00.00 in.
24hr Rain Fall
00.01 in.
Sky Condition
Scattered @ 4,300 ft
VFR

METAR KMDS 201905Z AUTO 08007G17KT 10SM SCT043 12/04 A3015 RMK AO2

FAA Disclaimer: The data displayed is for advisory purposes only and is not to be used for flight planning or operations.